Historyczne dane pomiarowe

Dodano dane terminowe – wersja testowa.

Dane z okresu 1951-2019

Wersja bazy: 1.34 [2019-03-16, lista zmian], aktualizacja planowana na 2019-04-15

Dane meteo z obszaru Polski uzyskane na podstawie danych udostępnionych przez Instytut Meteorologii i Gospodarki Wodnej – Państwowy Instytut Badawczy.

 

Wybierz Datę:    

       

TemperaturaWilgotnośćWiatrCiśnienieOpadyŚniegCzas trwania zjawisk
 Stacja t tx tn tng RH VA  wxwx mslp ppp RRR   cm mm wxwxwxwxwxwxwx
1961-08-14 14.6 19.5 8.9- 82.8- 3.3 1.0---- 0.0------------
1961-08-13 14.7 18.2 13.2- 81.3- 5.7 4.0---- 0.0------------
1961-08-12 17.6 22.4 14.1- 92.8- 7.3 1.0---- 6.8------------
1961-08-11 18.5 23.1 17.2- 95.8- 7.7 2.7---- 15.5------------
1961-08-10 22.3 26.5 16.4- 74.8- 6.0 3.3---- 11.6------------
1961-08-09 21.9 28.2 15.7- 73.0- 4.3 1.7---- 0.0------------
1961-08-08 18.4 22.8 12.0- 69.8- 4.7 1.7---- 0.0------------
1961-08-07 19.1 22.6 18.1- 93.0- 8.0 3.0---- 2.5------------
1961-08-06 23.3 30.3 15.3- 75.5- 2.7 3.0---- 0.9------------
1961-08-05 18.4 23.8 14.6- 85.0- 4.3 3.7---- 0.0------------
1961-08-04 15.8 19.9 7.8- 73.8- 6.7 3.0---- 0.0------------
1961-08-03 14.6 19.6 12.4- 91.3- 5.3 3.0---- 1.6------------
1961-08-02 17.3 26.1 9.6- 84.8- 2.7 2.0---- 4.7------------
1961-08-01 12.8 15.8 11.5- 98.0- 6.0 5.3---- 3.1------------
1961-07-31 14.1 17.2 12.5- 95.0- 7.7 4.7---- 14.9------------
1961-07-30 13.6 17.1 9.8- 90.3- 8.0 1.0---- 6.8------------
1961-07-29 14.8 18.8 12.6- 84.3- 6.3 2.3---- 0.4------------
1961-07-28 15.7 19.5 14.1- 93.3- 8.0 2.7---- 15.5------------
1961-07-27 20.0 25.7 15.4- 71.8- 7.7 4.3---- 0.0------------
1961-07-26 17.4 22.3 11.9- 79.5- 8.0 4.0---- 0.0------------
1961-07-25 14.5 16.9 9.4- 87.3- 7.7 3.7---- 0.4------------
1961-07-24 14.2 18.0 10.2- 84.8- 4.7 3.7---- 0.0------------
1961-07-23 14.6 17.3 12.5- 89.0- 6.7 4.0---- 0.0------------
1961-07-22 15.4 20.1 13.5- 91.5- 6.7 4.0---- 4.8------------
1961-07-21 14.7 18.4 10.9- 89.0- 8.0 3.7---- 5.7------------
1961-07-20 15.3 21.2 9.4- 90.5- 5.7 0.7---- 0.8------------
1961-07-19 15.3 20.7 11.0- 88.3- 5.0 2.3---- 0.5------------
1961-07-18 14.0 18.6 11.0- 96.8- 6.0 2.7---- 13.2------------
1961-07-17 14.7 21.2 11.3- 87.8- 5.0 2.3---- 6.7------------
1961-07-16 14.5 18.6 13.0- 93.8- 6.0 2.3---- 4.3------------
1961-07-15 17.2 23.4 11.5- 85.0- 4.7 2.0---- 0.0------------
1961-07-14 14.8 20.0 13.8- 77.3- 6.0 6.0---- 0.0------------
1961-07-13 21.5 29.1 15.9- 83.0- 5.7 4.3---- 35.4------------
1961-07-12 20.2 26.1 13.0- 78.0- 4.0 1.7---- 0.0------------
1961-07-11 16.1 22.2 9.8- 74.0- 4.0 3.0---- 16.7------------
1961-07-10 14.3 18.7 9.4- 83.3- 6.0 3.0---- 2.8------------
1961-07-09 15.8 22.6 10.2- 81.0- 4.0 3.0---- 0.3------------
1961-07-08 16.5 22.2 9.1- 68.8- 4.3 2.0---- 0.0------------
1961-07-07 13.7 17.7 8.9- 76.3- 5.7 3.3---- 0.0------------
1961-07-06 12.7 15.9 7.6- 82.3- 5.0 5.7---- 0.7------------
1961-07-05 14.8 18.8 12.8- 65.0- 5.3 7.0---- 0.0------------
1961-07-04 18.5 25.9 16.1- 83.5- 6.3 3.0---- 0.0------------
1961-07-03 24.8 32.8 12.5- 62.0- 0.3 1.7---- 0.0------------
1961-07-02 22.8 31.2 11.1- 63.8- 0.0 1.7---- 0.0------------
1961-07-01 20.7 27.8 12.2- 66.8- 0.7 2.0---- 0.0------------
1961-06-30 19.9 26.9 9.7- 67.0- 0.0 1.7---- 0.0------------
1961-06-29 16.2 20.4 10.8- 77.0- 3.7 3.0---- 0.0------------
1961-06-28 15.5 20.0 13.4- 69.5- 5.3 4.7---- 0.0------------
1961-06-27 22.8 32.9 17.0- 77.3- 6.0 4.0---- 2.4------------
1961-06-26 23.3 29.0 15.6- 66.5- 3.0 1.0---- 0.0------------
1961-06-25 22.3 28.4 15.1- 68.3- 3.3 3.3---- 0.0------------
1961-06-24 18.2 23.1 13.1- 69.8- 3.3 5.3---- 0.0------------
1961-06-23 17.7 23.6 15.2- 80.0- 4.3 3.7---- 0.0------------
1961-06-22 16.8 21.7 6.3- 77.0- 3.0 2.7---- 5.2------------
1961-06-21 16.0 23.6 7.9- 78.8- 4.0 2.7---- 0.0------------
1961-06-20 15.6 20.3 8.4- 70.0- 0.7 3.0---- 0.0------------
1961-06-19 16.8 22.0 14.9- 77.0- 3.7 3.3---- 0.0------------
1961-06-18 21.8 27.2 13.2- 72.8- 2.3 3.0---- 0.0------------
1961-06-17 17.5 23.1 8.2- 83.0- 4.3 4.3---- 0.0------------
1961-06-16 13.1 16.7 10.8- 93.8- 6.7 3.3---- 0.0------------
514.5 ms

 

Źródłem pochodzenia danych jest Instytut Meteorologii i Gospodarki Wodnej – Państwowy Instytut Badawczy. Dane Instytutu Meteorologii i Gospodarki Wodnej – Państwowego Instytutu Badawczego zostały przetworzone.

Dane źródłowe można odnaleźć na stronie https://dane.imgw.pl